createdAt,value
2022-08-02T00:01:13.511Z,79.86
2022-08-02T00:08:16.554Z,80.07
2022-08-02T00:15:18.495Z,80.07
2022-08-02T00:21:21.031Z,80.11
2022-08-02T00:28:19.491Z,80.06
2022-08-02T00:35:30.379Z,80.16
2022-08-02T00:42:32.172Z,80.26
2022-08-02T00:49:35.205Z,80.31
2022-08-02T00:56:38.034Z,80.39
2022-08-02T01:03:26.568Z,80.35
2022-08-02T01:10:11.337Z,80.40
2022-08-02T01:17:14.438Z,80.51
2022-08-02T01:24:05.943Z,80.61
2022-08-02T01:31:01.900Z,80.66
2022-08-02T01:38:10.520Z,80.88
2022-08-02T01:45:13.200Z,80.86
2022-08-02T01:52:14.004Z,80.76
2022-08-02T01:59:17.301Z,80.67
2022-08-02T02:06:20.077Z,80.61
2022-08-02T02:12:28.335Z,80.60
2022-08-02T02:19:31.208Z,80.58
2022-08-02T02:26:20.822Z,80.73
2022-08-02T02:33:18.821Z,80.78
2022-08-02T02:40:21.652Z,80.79
2022-08-02T02:47:40.417Z,80.74
2022-08-02T02:54:35.546Z,80.75
2022-08-02T03:01:56.910Z,80.69
2022-08-02T03:09:00.188Z,80.83
2022-08-02T03:16:02.592Z,80.79
2022-08-02T03:23:05.657Z,80.79
2022-08-02T03:30:10.765Z,80.79
2022-08-02T03:37:14.083Z,81.04
2022-08-02T03:44:01.228Z,81.06
2022-08-02T03:51:04.312Z,80.92
2022-08-02T03:57:55.593Z,80.99
2022-08-02T04:04:58.637Z,81.23
2022-08-02T04:12:01.437Z,81.15
2022-08-02T04:19:15.132Z,81.07
2022-08-02T04:26:28.338Z,81.10
2022-08-02T04:32:55.037Z,81.11
2022-08-02T04:39:57.883Z,81.08
2022-08-02T04:46:41.982Z,80.92
2022-08-02T04:53:44.942Z,80.74
2022-08-02T05:00:48.326Z,80.75
2022-08-02T05:07:51.536Z,80.69
2022-08-02T05:14:44.808Z,80.67
2022-08-02T05:21:11.572Z,80.46
2022-08-02T05:27:47.908Z,80.45
2022-08-02T05:34:51.029Z,80.48
2022-08-02T05:41:53.162Z,80.39
2022-08-02T05:48:45.741Z,80.44
2022-08-02T05:55:48.875Z,80.41
2022-08-02T06:02:38.604Z,80.14
2022-08-02T06:09:50.395Z,79.86
2022-08-02T06:16:44.478Z,79.77
2022-08-02T06:23:57.700Z,79.75
2022-08-02T06:30:24.880Z,79.52
2022-08-02T06:36:57.278Z,79.57
2022-08-02T06:43:08.887Z,79.53
2022-08-02T06:49:20.452Z,79.39
2022-08-02T06:55:05.315Z,79.25
2022-08-02T07:01:11.356Z,79.26
2022-08-02T07:06:57.147Z,79.24
2022-08-02T07:12:36.104Z,79.35
2022-08-02T07:18:01.885Z,79.33
2022-08-02T07:23:44.059Z,79.28
2022-08-02T07:29:15.238Z,79.08
2022-08-02T07:34:41.787Z,78.69
2022-08-02T07:41:29.928Z,78.43
2022-08-02T07:48:33.190Z,77.87
2022-08-02T07:55:40.404Z,77.19
2022-08-02T08:02:28.975Z,76.57
2022-08-02T08:08:54.936Z,75.75
2022-08-02T08:15:58.240Z,75.00
2022-08-02T08:22:44.225Z,74.65
2022-08-02T08:29:11.261Z,74.30
2022-08-02T08:35:47.860Z,74.21
2022-08-02T08:42:50.634Z,73.47
2022-08-02T08:49:23.343Z,73.08
2022-08-02T08:55:47.990Z,72.46
2022-08-02T09:02:28.109Z,71.89
2022-08-02T09:08:54.953Z,71.69
2022-08-02T09:14:59.732Z,70.41
2022-08-02T09:22:03.562Z,69.63
2022-08-02T09:28:12.866Z,68.68
2022-08-02T09:34:54.974Z,68.97
2022-08-02T09:41:10.001Z,68.33
2022-08-02T09:48:14.442Z,67.53
2022-08-02T09:54:50.035Z,66.13
2022-08-02T10:01:37.201Z,65.14
2022-08-02T10:07:53.029Z,64.32
2022-08-02T10:14:24.217Z,63.48
2022-08-02T10:20:40.932Z,62.62
2022-08-02T10:27:20.822Z,62.24
2022-08-02T10:33:35.659Z,62.44
2022-08-02T10:39:58.399Z,62.26
2022-08-02T10:45:51.032Z,61.82
2022-08-02T10:51:50.764Z,61.85
2022-08-02T10:58:34.510Z,60.55
2022-08-02T11:05:08.001Z,61.48
2022-08-02T11:11:54.319Z,61.98
2022-08-02T11:18:54.096Z,61.72
2022-08-02T11:26:03.632Z,60.70
2022-08-02T11:32:31.130Z,60.37
2022-08-02T11:38:29.390Z,60.08
2022-08-02T11:45:22.845Z,59.37
2022-08-02T11:52:32.677Z,57.96
2022-08-02T11:59:41.718Z,56.44
2022-08-02T12:06:16.421Z,57.38
2022-08-02T12:12:11.334Z,57.73
2022-08-02T12:18:49.283Z,56.56
2022-08-02T12:25:08.904Z,57.71
2022-08-02T12:32:14.059Z,58.95
2022-08-02T12:38:13.858Z,58.90
2022-08-02T12:44:54.665Z,59.18
2022-08-02T12:50:46.990Z,58.08
2022-08-02T12:56:44.893Z,56.99
2022-08-02T13:02:21.819Z,56.85
2022-08-02T13:07:49.810Z,56.38
2022-08-02T13:13:24.923Z,55.22
2022-08-02T13:18:47.197Z,55.06
2022-08-02T13:24:33.201Z,55.53
2022-08-02T13:30:07.496Z,54.63
2022-08-02T13:35:50.107Z,54.04
2022-08-02T13:41:14.925Z,54.50
2022-08-02T13:47:11.424Z,54.29
2022-08-02T13:52:45.149Z,52.13
2022-08-02T13:58:16.708Z,52.29
2022-08-02T14:04:46.997Z,50.59
2022-08-02T14:11:49.898Z,51.06
2022-08-02T14:17:48.923Z,51.88
2022-08-02T14:23:49.020Z,51.32
2022-08-02T14:29:09.240Z,50.18
2022-08-02T14:34:31.135Z,50.08
2022-08-02T14:40:00.133Z,49.65
2022-08-02T14:45:41.503Z,50.10
2022-08-02T14:51:20.163Z,50.96
2022-08-02T14:56:44.760Z,52.28
2022-08-02T15:02:14.035Z,52.09
2022-08-02T15:07:41.884Z,52.48
2022-08-02T15:13:05.687Z,52.24
2022-08-02T15:18:32.833Z,51.78
2022-08-02T15:23:58.173Z,51.76
2022-08-02T15:29:20.778Z,50.80
2022-08-02T15:34:42.938Z,50.29
2022-08-02T15:40:05.825Z,50.41
2022-08-02T15:45:27.977Z,51.19
2022-08-02T15:50:50.000Z,52.42
2022-08-02T15:56:13.136Z,52.92
2022-08-02T16:01:46.620Z,53.49
2022-08-02T16:07:12.748Z,53.31
2022-08-02T16:12:43.603Z,53.72
2022-08-02T16:18:11.359Z,53.60
2022-08-02T16:23:58.637Z,54.03
2022-08-02T16:29:25.555Z,54.31
2022-08-02T16:35:07.475Z,53.56
2022-08-02T16:40:31.060Z,53.88
2022-08-02T16:45:53.221Z,54.22
2022-08-02T16:51:15.828Z,54.52
2022-08-02T16:56:38.965Z,54.62
2022-08-02T17:02:18.100Z,54.90
2022-08-02T17:08:18.292Z,55.37
2022-08-02T17:13:42.956Z,55.20
2022-08-02T17:19:06.784Z,55.40
2022-08-02T17:24:32.173Z,55.77
2022-08-02T17:29:57.165Z,56.40
2022-08-02T17:35:19.595Z,56.58
2022-08-02T17:41:05.359Z,56.81
2022-08-02T17:46:40.185Z,57.78
2022-08-02T17:52:49.369Z,58.71
2022-08-02T17:58:12.520Z,59.37
2022-08-02T18:03:39.053Z,59.42
2022-08-02T18:09:06.507Z,60.42
2022-08-02T18:14:31.849Z,61.04
2022-08-02T18:20:04.496Z,61.24
2022-08-02T18:25:46.647Z,61.69
2022-08-02T18:31:20.230Z,62.50
2022-08-02T18:36:49.047Z,63.47
2022-08-02T18:42:31.341Z,63.76
2022-08-02T18:47:54.174Z,64.38
2022-08-02T18:53:39.112Z,65.28
2022-08-02T18:58:59.203Z,66.06
2022-08-02T19:04:27.853Z,66.59
2022-08-02T19:10:08.454Z,66.80
2022-08-02T19:15:35.511Z,67.44
2022-08-02T19:21:05.570Z,67.93
2022-08-02T19:26:39.230Z,68.60
2022-08-02T19:32:40.218Z,68.86
2022-08-02T19:38:12.267Z,69.54
2022-08-02T19:44:24.878Z,69.81
2022-08-02T19:49:40.430Z,70.01
2022-08-02T19:56:00.656Z,70.56
2022-08-02T20:00:51.232Z,71.43
2022-08-02T20:06:29.357Z,71.85
2022-08-02T20:11:55.305Z,72.04
2022-08-02T20:17:20.641Z,72.58
2022-08-02T20:23:01.684Z,73.19
2022-08-02T20:28:46.808Z,73.51
2022-08-02T20:34:11.748Z,73.99
2022-08-02T20:39:42.987Z,73.97
2022-08-02T20:45:07.279Z,74.22
2022-08-02T20:50:49.204Z,74.66
2022-08-02T20:57:19.525Z,74.92
2022-08-02T21:03:22.090Z,75.14
2022-08-02T21:08:46.118Z,75.35
2022-08-02T21:14:14.481Z,75.06
2022-08-02T21:19:59.641Z,75.04
2022-08-02T21:25:42.341Z,75.57
2022-08-02T21:31:15.837Z,75.96
2022-08-02T21:36:38.395Z,76.43
2022-08-02T21:42:11.126Z,76.68
2022-08-02T21:47:47.342Z,76.54
2022-08-02T21:53:13.296Z,76.64
2022-08-02T22:05:15.796Z,77.56
2022-08-02T22:11:04.781Z,77.79
2022-08-02T22:18:00.465Z,78.06
2022-08-02T22:24:52.479Z,78.44
2022-08-02T22:31:43.690Z,78.63
2022-08-02T22:38:44.230Z,78.53
2022-08-02T22:45:48.383Z,78.65
2022-08-02T22:52:33.975Z,78.80
2022-08-02T23:06:00.165Z,78.72
2022-08-02T23:13:03.254Z,78.38
2022-08-02T23:19:15.647Z,77.79
2022-08-02T23:26:18.287Z,77.39
2022-08-02T23:33:21.635Z,77.28
2022-08-02T23:40:39.486Z,77.18
2022-08-02T23:47:43.393Z,77.44
2022-08-02T23:54:26.199Z,78.09
